sensor_id;sensor_type;location;lat;lon;timestamp;P1;durP1;ratioP1;P2;durP2;ratioP2
19193;SDS011;9729;52.296;13.260;2023-08-01T00:01:26;9.13;;;4.77;;
19193;SDS011;9729;52.296;13.260;2023-08-01T00:03:53;7.43;;;3.97;;
19193;SDS011;9729;52.296;13.260;2023-08-01T00:06:19;9.60;;;4.83;;
19193;SDS011;9729;52.296;13.260;2023-08-01T00:08:47;7.67;;;4.20;;
19193;SDS011;9729;52.296;13.260;2023-08-01T00:11:13;6.63;;;4.70;;
19193;SDS011;9729;52.296;13.260;2023-08-01T00:13:42;7.97;;;4.73;;
19193;SDS011;9729;52.296;13.260;2023-08-01T00:16:08;6.50;;;4.77;;
19193;SDS011;9729;52.296;13.260;2023-08-01T00:18:35;8.37;;;4.00;;
19193;SDS011;9729;52.296;13.260;2023-08-01T00:21:01;5.87;;;4.30;;
19193;SDS011;9729;52.296;13.260;2023-08-01T00:23:30;6.43;;;5.03;;
19193;SDS011;9729;52.296;13.260;2023-08-01T00:25:56;7.40;;;5.00;;
19193;SDS011;9729;52.296;13.260;2023-08-01T00:28:22;8.13;;;5.13;;
19193;SDS011;9729;52.296;13.260;2023-08-01T00:30:50;8.50;;;5.00;;
19193;SDS011;9729;52.296;13.260;2023-08-01T00:33:16;5.50;;;4.50;;
19193;SDS011;9729;52.296;13.260;2023-08-01T00:35:43;10.50;;;5.53;;
19193;SDS011;9729;52.296;13.260;2023-08-01T00:38:09;7.20;;;5.57;;
19193;SDS011;9729;52.296;13.260;2023-08-01T00:40:35;8.97;;;5.30;;
19193;SDS011;9729;52.296;13.260;2023-08-01T00:43:02;8.13;;;5.10;;
19193;SDS011;9729;52.296;13.260;2023-08-01T00:45:28;11.23;;;5.37;;
19193;SDS011;9729;52.296;13.260;2023-08-01T00:47:56;8.57;;;5.70;;
19193;SDS011;9729;52.296;13.260;2023-08-01T00:50:22;9.23;;;5.33;;
19193;SDS011;9729;52.296;13.260;2023-08-01T00:52:50;10.40;;;6.33;;
19193;SDS011;9729;52.296;13.260;2023-08-01T00:55:16;8.50;;;5.73;;
19193;SDS011;9729;52.296;13.260;2023-08-01T00:57:43;9.40;;;5.53;;
19193;SDS011;9729;52.296;13.260;2023-08-01T01:00:10;11.70;;;5.47;;
19193;SDS011;9729;52.296;13.260;2023-08-01T01:02:37;6.07;;;5.37;;
19193;SDS011;9729;52.296;13.260;2023-08-01T01:05:05;7.43;;;5.73;;
19193;SDS011;9729;52.296;13.260;2023-08-01T01:07:32;9.23;;;5.93;;
19193;SDS011;9729;52.296;13.260;2023-08-01T01:09:59;9.60;;;5.73;;
19193;SDS011;9729;52.296;13.260;2023-08-01T01:12:25;7.90;;;5.80;;
19193;SDS011;9729;52.296;13.260;2023-08-01T01:14:51;6.40;;;5.17;;
19193;SDS011;9729;52.296;13.260;2023-08-01T01:17:18;11.53;;;5.93;;
19193;SDS011;9729;52.296;13.260;2023-08-01T01:19:44;8.03;;;5.67;;
19193;SDS011;9729;52.296;13.260;2023-08-01T01:22:12;11.57;;;5.73;;
19193;SDS011;9729;52.296;13.260;2023-08-01T01:24:38;12.30;;;5.87;;
19193;SDS011;9729;52.296;13.260;2023-08-01T01:27:05;6.07;;;5.40;;
19193;SDS011;9729;52.296;13.260;2023-08-01T01:29:32;9.77;;;6.07;;
19193;SDS011;9729;52.296;13.260;2023-08-01T01:32:00;13.80;;;6.47;;
19193;SDS011;9729;52.296;13.260;2023-08-01T01:34:26;10.03;;;6.33;;
19193;SDS011;9729;52.296;13.260;2023-08-01T01:36:53;11.33;;;6.53;;
19193;SDS011;9729;52.296;13.260;2023-08-01T01:39:21;13.20;;;6.77;;
19193;SDS011;9729;52.296;13.260;2023-08-01T01:41:47;10.07;;;6.40;;
19193;SDS011;9729;52.296;13.260;2023-08-01T01:44:13;14.10;;;7.10;;
19193;SDS011;9729;52.296;13.260;2023-08-01T01:46:40;13.50;;;6.50;;
19193;SDS011;9729;52.296;13.260;2023-08-01T01:49:06;12.37;;;6.83;;
19193;SDS011;9729;52.296;13.260;2023-08-01T01:51:33;12.27;;;7.90;;
19193;SDS011;9729;52.296;13.260;2023-08-01T01:53:59;10.67;;;7.10;;
19193;SDS011;9729;52.296;13.260;2023-08-01T01:56:27;9.57;;;7.07;;
19193;SDS011;9729;52.296;13.260;2023-08-01T01:58:54;12.57;;;6.77;;
19193;SDS011;9729;52.296;13.260;2023-08-01T02:01:21;12.03;;;7.00;;
19193;SDS011;9729;52.296;13.260;2023-08-01T02:03:47;12.03;;;7.03;;
19193;SDS011;9729;52.296;13.260;2023-08-01T02:06:13;9.63;;;7.83;;
19193;SDS011;9729;52.296;13.260;2023-08-01T02:08:40;11.13;;;6.87;;
19193;SDS011;9729;52.296;13.260;2023-08-01T02:11:06;11.60;;;6.83;;
19193;SDS011;9729;52.296;13.260;2023-08-01T02:13:34;11.73;;;7.43;;
19193;SDS011;9729;52.296;13.260;2023-08-01T02:16:00;12.10;;;7.30;;
19193;SDS011;9729;52.296;13.260;2023-08-01T02:18:26;14.67;;;7.27;;
19193;SDS011;9729;52.296;13.260;2023-08-01T02:20:53;11.27;;;8.10;;
19193;SDS011;9729;52.296;13.260;2023-08-01T02:23:19;10.53;;;7.60;;
19193;SDS011;9729;52.296;13.260;2023-08-01T02:25:45;8.27;;;6.43;;
19193;SDS011;9729;52.296;13.260;2023-08-01T02:28:12;11.70;;;7.57;;
19193;SDS011;9729;52.296;13.260;2023-08-01T02:30:39;14.17;;;7.53;;
19193;SDS011;9729;52.296;13.260;2023-08-01T02:33:06;15.63;;;7.50;;
19193;SDS011;9729;52.296;13.260;2023-08-01T02:35:32;9.97;;;7.00;;
19193;SDS011;9729;52.296;13.260;2023-08-01T02:37:59;8.70;;;6.90;;
19193;SDS011;9729;52.296;13.260;2023-08-01T02:40:25;9.23;;;6.90;;
19193;SDS011;9729;52.296;13.260;2023-08-01T02:42:51;17.07;;;6.90;;
19193;SDS011;9729;52.296;13.260;2023-08-01T02:45:18;11.80;;;7.60;;
19193;SDS011;9729;52.296;13.260;2023-08-01T02:47:46;12.80;;;7.63;;
19193;SDS011;9729;52.296;13.260;2023-08-01T02:50:12;14.53;;;7.17;;
19193;SDS011;9729;52.296;13.260;2023-08-01T02:52:38;15.93;;;7.17;;
19193;SDS011;9729;52.296;13.260;2023-08-01T02:55:05;9.37;;;6.90;;
19193;SDS011;9729;52.296;13.260;2023-08-01T02:57:32;14.73;;;6.83;;
19193;SDS011;9729;52.296;13.260;2023-08-01T02:59:58;12.83;;;7.30;;
19193;SDS011;9729;52.296;13.260;2023-08-01T03:02:25;9.27;;;6.53;;
19193;SDS011;9729;52.296;13.260;2023-08-01T03:04:54;11.10;;;7.30;;
19193;SDS011;9729;52.296;13.260;2023-08-01T03:07:20;11.73;;;7.13;;
19193;SDS011;9729;52.296;13.260;2023-08-01T03:09:46;10.83;;;6.60;;
19193;SDS011;9729;52.296;13.260;2023-08-01T03:12:13;10.73;;;7.10;;
19193;SDS011;9729;52.296;13.260;2023-08-01T03:14:39;10.33;;;5.83;;
19193;SDS011;9729;52.296;13.260;2023-08-01T03:17:06;8.20;;;6.77;;
19193;SDS011;9729;52.296;13.260;2023-08-01T03:19:33;10.23;;;6.10;;
19193;SDS011;9729;52.296;13.260;2023-08-01T03:22:01;9.57;;;7.33;;
19193;SDS011;9729;52.296;13.260;2023-08-01T03:24:27;11.80;;;6.53;;
19193;SDS011;9729;52.296;13.260;2023-08-01T03:26:53;12.50;;;6.57;;
19193;SDS011;9729;52.296;13.260;2023-08-01T03:29:20;8.13;;;6.20;;
19193;SDS011;9729;52.296;13.260;2023-08-01T03:31:46;10.57;;;6.70;;
19193;SDS011;9729;52.296;13.260;2023-08-01T03:34:13;9.97;;;6.60;;
19193;SDS011;9729;52.296;13.260;2023-08-01T03:36:39;13.40;;;7.03;;
19193;SDS011;9729;52.296;13.260;2023-08-01T03:39:07;8.03;;;6.53;;
19193;SDS011;9729;52.296;13.260;2023-08-01T03:41:34;11.80;;;7.50;;
19193;SDS011;9729;52.296;13.260;2023-08-01T03:44:01;11.40;;;5.93;;
19193;SDS011;9729;52.296;13.260;2023-08-01T03:46:27;7.10;;;6.40;;
19193;SDS011;9729;52.296;13.260;2023-08-01T03:48:54;11.10;;;6.50;;
19193;SDS011;9729;52.296;13.260;2023-08-01T03:51:20;8.23;;;6.33;;
19193;SDS011;9729;52.296;13.260;2023-08-01T03:53:46;7.63;;;5.87;;
19193;SDS011;9729;52.296;13.260;2023-08-01T03:56:14;14.57;;;6.17;;
19193;SDS011;9729;52.296;13.260;2023-08-01T03:58:41;11.63;;;6.60;;
19193;SDS011;9729;52.296;13.260;2023-08-01T04:01:07;6.80;;;5.93;;
19193;SDS011;9729;52.296;13.260;2023-08-01T04:03:33;11.27;;;6.47;;
19193;SDS011;9729;52.296;13.260;2023-08-01T04:06:00;7.30;;;5.77;;
19193;SDS011;9729;52.296;13.260;2023-08-01T04:08:26;10.97;;;6.63;;
19193;SDS011;9729;52.296;13.260;2023-08-01T04:10:52;10.10;;;6.40;;
19193;SDS011;9729;52.296;13.260;2023-08-01T04:13:20;9.53;;;6.30;;
19193;SDS011;9729;52.296;13.260;2023-08-01T04:15:46;8.50;;;5.70;;
19193;SDS011;9729;52.296;13.260;2023-08-01T04:18:13;9.63;;;6.20;;
19193;SDS011;9729;52.296;13.260;2023-08-01T04:20:40;8.77;;;5.73;;
19193;SDS011;9729;52.296;13.260;2023-08-01T04:23:06;10.90;;;5.57;;
19193;SDS011;9729;52.296;13.260;2023-08-01T04:25:32;10.83;;;5.87;;
19193;SDS011;9729;52.296;13.260;2023-08-01T04:27:59;8.30;;;5.87;;
19193;SDS011;9729;52.296;13.260;2023-08-01T04:30:26;8.63;;;6.13;;
19193;SDS011;9729;52.296;13.260;2023-08-01T04:32:53;7.53;;;5.60;;
19193;SDS011;9729;52.296;13.260;2023-08-01T04:35:19;5.77;;;4.87;;
19193;SDS011;9729;52.296;13.260;2023-08-01T04:37:45;6.90;;;5.93;;
19193;SDS011;9729;52.296;13.260;2023-08-01T04:40:12;10.60;;;6.00;;
19193;SDS011;9729;52.296;13.260;2023-08-01T04:42:38;19.43;;;5.63;;
19193;SDS011;9729;52.296;13.260;2023-08-01T04:45:05;8.13;;;5.63;;
19193;SDS011;9729;52.296;13.260;2023-08-01T04:47:33;11.70;;;6.20;;
19193;SDS011;9729;52.296;13.260;2023-08-01T04:50:00;8.80;;;5.67;;
19193;SDS011;9729;52.296;13.260;2023-08-01T04:52:27;6.87;;;5.80;;
19193;SDS011;9729;52.296;13.260;2023-08-01T04:54:53;8.07;;;5.70;;
19193;SDS011;9729;52.296;13.260;2023-08-01T04:57:19;8.47;;;5.53;;
19193;SDS011;9729;52.296;13.260;2023-08-01T04:59:46;7.10;;;5.50;;
19193;SDS011;9729;52.296;13.260;2023-08-01T05:02:12;7.10;;;5.53;;
19193;SDS011;9729;52.296;13.260;2023-08-01T05:04:40;10.90;;;6.13;;
19193;SDS011;9729;52.296;13.260;2023-08-01T05:07:06;8.60;;;5.70;;
19193;SDS011;9729;52.296;13.260;2023-08-01T05:09:32;7.40;;;5.57;;
19193;SDS011;9729;52.296;13.260;2023-08-01T05:11:59;9.77;;;5.07;;
19193;SDS011;9729;52.296;13.260;2023-08-01T05:14:25;10.00;;;6.20;;
19193;SDS011;9729;52.296;13.260;2023-08-01T05:16:52;8.13;;;4.87;;
19193;SDS011;9729;52.296;13.260;2023-08-01T05:19:18;7.40;;;5.53;;
19193;SDS011;9729;52.296;13.260;2023-08-01T05:21:46;12.70;;;5.47;;
19193;SDS011;9729;52.296;13.260;2023-08-01T05:24:12;5.87;;;4.97;;
19193;SDS011;9729;52.296;13.260;2023-08-01T05:26:38;7.77;;;5.63;;
19193;SDS011;9729;52.296;13.260;2023-08-01T05:29:05;9.47;;;5.50;;
19193;SDS011;9729;52.296;13.260;2023-08-01T05:31:31;7.73;;;5.50;;
19193;SDS011;9729;52.296;13.260;2023-08-01T05:33:57;7.03;;;5.47;;
19193;SDS011;9729;52.296;13.260;2023-08-01T05:36:24;6.20;;;4.70;;
19193;SDS011;9729;52.296;13.260;2023-08-01T05:38:51;7.17;;;5.00;;
19193;SDS011;9729;52.296;13.260;2023-08-01T05:41:18;6.17;;;5.20;;
19193;SDS011;9729;52.296;13.260;2023-08-01T05:43:44;5.73;;;4.60;;
19193;SDS011;9729;52.296;13.260;2023-08-01T05:46:12;7.33;;;4.80;;
19193;SDS011;9729;52.296;13.260;2023-08-01T05:48:39;7.77;;;5.13;;
19193;SDS011;9729;52.296;13.260;2023-08-01T05:51:05;7.60;;;5.00;;
19193;SDS011;9729;52.296;13.260;2023-08-01T05:53:31;7.27;;;4.93;;
19193;SDS011;9729;52.296;13.260;2023-08-01T05:55:59;5.70;;;4.50;;
19193;SDS011;9729;52.296;13.260;2023-08-01T05:58:25;8.27;;;5.27;;
19193;SDS011;9729;52.296;13.260;2023-08-01T06:00:52;6.83;;;5.10;;
19193;SDS011;9729;52.296;13.260;2023-08-01T06:03:18;6.30;;;4.87;;
19193;SDS011;9729;52.296;13.260;2023-08-01T06:05:44;6.07;;;4.73;;
19193;SDS011;9729;52.296;13.260;2023-08-01T06:08:11;6.27;;;4.00;;
19193;SDS011;9729;52.296;13.260;2023-08-01T06:10:38;9.03;;;4.80;;
19193;SDS011;9729;52.296;13.260;2023-08-01T06:13:06;9.07;;;4.80;;
19193;SDS011;9729;52.296;13.260;2023-08-01T06:15:32;7.50;;;4.70;;
19193;SDS011;9729;52.296;13.260;2023-08-01T06:17:58;7.20;;;5.07;;
19193;SDS011;9729;52.296;13.260;2023-08-01T06:20:25;10.13;;;5.20;;
19193;SDS011;9729;52.296;13.260;2023-08-01T06:22:51;5.80;;;4.67;;
19193;SDS011;9729;52.296;13.260;2023-08-01T06:25:18;5.60;;;4.93;;
19193;SDS011;9729;52.296;13.260;2023-08-01T06:27:44;5.77;;;4.50;;
19193;SDS011;9729;52.296;13.260;2023-08-01T06:30:12;11.03;;;5.77;;
19193;SDS011;9729;52.296;13.260;2023-08-01T06:32:38;6.13;;;4.47;;
19193;SDS011;9729;52.296;13.260;2023-08-01T06:35:05;5.20;;;4.70;;
19193;SDS011;9729;52.296;13.260;2023-08-01T06:37:32;5.87;;;5.27;;
19193;SDS011;9729;52.296;13.260;2023-08-01T06:39:58;6.63;;;4.37;;
19193;SDS011;9729;52.296;13.260;2023-08-01T06:42:25;6.47;;;4.87;;
19193;SDS011;9729;52.296;13.260;2023-08-01T06:44:51;5.03;;;4.20;;
19193;SDS011;9729;52.296;13.260;2023-08-01T06:47:19;7.17;;;4.50;;
19193;SDS011;9729;52.296;13.260;2023-08-01T06:49:45;6.20;;;4.50;;
19193;SDS011;9729;52.296;13.260;2023-08-01T06:52:12;7.87;;;4.70;;
19193;SDS011;9729;52.296;13.260;2023-08-01T06:54:38;5.17;;;4.43;;
19193;SDS011;9729;52.296;13.260;2023-08-01T06:57:05;8.23;;;5.43;;
19193;SDS011;9729;52.296;13.260;2023-08-01T06:59:32;6.40;;;4.77;;
19193;SDS011;9729;52.296;13.260;2023-08-01T07:01:58;6.97;;;4.40;;
19193;SDS011;9729;52.296;13.260;2023-08-01T07:04:26;5.37;;;4.33;;
19193;SDS011;9729;52.296;13.260;2023-08-01T07:06:52;5.10;;;4.23;;
19193;SDS011;9729;52.296;13.260;2023-08-01T07:09:19;5.70;;;4.53;;
19193;SDS011;9729;52.296;13.260;2023-08-01T07:11:45;4.47;;;4.00;;
19193;SDS011;9729;52.296;13.260;2023-08-01T07:14:11;8.97;;;4.07;;
19193;SDS011;9729;52.296;13.260;2023-08-01T07:16:38;6.63;;;4.33;;
19193;SDS011;9729;52.296;13.260;2023-08-01T07:19:04;5.00;;;4.43;;
19193;SDS011;9729;52.296;13.260;2023-08-01T07:21:32;6.47;;;4.53;;
19193;SDS011;9729;52.296;13.260;2023-08-01T07:23:58;4.47;;;3.63;;
19193;SDS011;9729;52.296;13.260;2023-08-01T07:26:24;7.10;;;4.47;;
19193;SDS011;9729;52.296;13.260;2023-08-01T07:28:53;4.87;;;3.80;;
19193;SDS011;9729;52.296;13.260;2023-08-01T07:31:19;5.53;;;3.90;;
19193;SDS011;9729;52.296;13.260;2023-08-01T07:33:46;5.33;;;4.10;;
19193;SDS011;9729;52.296;13.260;2023-08-01T07:36:12;3.97;;;3.67;;
19193;SDS011;9729;52.296;13.260;2023-08-01T07:38:40;4.80;;;3.70;;
19193;SDS011;9729;52.296;13.260;2023-08-01T07:41:06;5.63;;;3.50;;
19193;SDS011;9729;52.296;13.260;2023-08-01T07:43:33;3.80;;;3.50;;
19193;SDS011;9729;52.296;13.260;2023-08-01T07:45:59;5.63;;;3.47;;
19193;SDS011;9729;52.296;13.260;2023-08-01T07:48:26;3.90;;;3.50;;
19193;SDS011;9729;52.296;13.260;2023-08-01T07:50:52;5.67;;;3.67;;
19193;SDS011;9729;52.296;13.260;2023-08-01T07:53:18;4.23;;;3.80;;
19193;SDS011;9729;52.296;13.260;2023-08-01T07:55:46;4.67;;;3.37;;
19193;SDS011;9729;52.296;13.260;2023-08-01T07:58:12;3.77;;;3.10;;
19193;SDS011;9729;52.296;13.260;2023-08-01T08:00:39;3.83;;;3.10;;
19193;SDS011;9729;52.296;13.260;2023-08-01T08:03:05;3.70;;;3.03;;
19193;SDS011;9729;52.296;13.260;2023-08-01T08:05:33;4.10;;;2.77;;
19193;SDS011;9729;52.296;13.260;2023-08-01T08:08:01;4.10;;;3.17;;
19193;SDS011;9729;52.296;13.260;2023-08-01T08:10:28;3.20;;;2.90;;
19193;SDS011;9729;52.296;13.260;2023-08-01T08:12:55;5.67;;;2.83;;
19193;SDS011;9729;52.296;13.260;2023-08-01T08:15:22;2.93;;;2.70;;
19193;SDS011;9729;52.296;13.260;2023-08-01T08:17:48;6.47;;;2.87;;
19193;SDS011;9729;52.296;13.260;2023-08-01T08:20:14;3.20;;;2.80;;
19193;SDS011;9729;52.296;13.260;2023-08-01T08:22:41;2.90;;;2.60;;
19193;SDS011;9729;52.296;13.260;2023-08-01T08:25:07;4.60;;;3.00;;
19193;SDS011;9729;52.296;13.260;2023-08-01T08:27:33;2.70;;;2.50;;
19193;SDS011;9729;52.296;13.260;2023-08-01T08:30:01;3.03;;;2.37;;
19193;SDS011;9729;52.296;13.260;2023-08-01T08:32:28;2.90;;;2.60;;
19193;SDS011;9729;52.296;13.260;2023-08-01T08:34:54;2.73;;;2.40;;
19193;SDS011;9729;52.296;13.260;2023-08-01T08:37:20;2.90;;;2.37;;
19193;SDS011;9729;52.296;13.260;2023-08-01T08:39:47;2.20;;;2.10;;
19193;SDS011;9729;52.296;13.260;2023-08-01T08:42:13;2.93;;;2.50;;
19193;SDS011;9729;52.296;13.260;2023-08-01T08:44:42;4.70;;;2.17;;
19193;SDS011;9729;52.296;13.260;2023-08-01T08:47:10;2.30;;;2.10;;
19193;SDS011;9729;52.296;13.260;2023-08-01T08:49:37;3.27;;;2.53;;
19193;SDS011;9729;52.296;13.260;2023-08-01T08:52:03;5.23;;;2.50;;
19193;SDS011;9729;52.296;13.260;2023-08-01T08:54:31;2.10;;;1.80;;
19193;SDS011;9729;52.296;13.260;2023-08-01T08:56:57;1.90;;;1.80;;
19193;SDS011;9729;52.296;13.260;2023-08-01T08:59:24;1.90;;;1.80;;
19193;SDS011;9729;52.296;13.260;2023-08-01T09:01:51;1.70;;;1.60;;
19193;SDS011;9729;52.296;13.260;2023-08-01T09:04:19;2.07;;;1.90;;
19193;SDS011;9729;52.296;13.260;2023-08-01T09:06:45;1.90;;;1.80;;
19193;SDS011;9729;52.296;13.260;2023-08-01T09:09:15;2.57;;;1.93;;
19193;SDS011;9729;52.296;13.260;2023-08-01T09:11:42;2.00;;;1.63;;
19193;SDS011;9729;52.296;13.260;2023-08-01T09:14:10;1.77;;;1.67;;
19193;SDS011;9729;52.296;13.260;2023-08-01T09:16:37;1.90;;;1.80;;
19193;SDS011;9729;52.296;13.260;2023-08-01T09:19:05;1.67;;;1.57;;
19193;SDS011;9729;52.296;13.260;2023-08-01T09:21:33;2.03;;;1.80;;
19193;SDS011;9729;52.296;13.260;2023-08-01T09:24:07;1.73;;;1.63;;
19193;SDS011;9729;52.296;13.260;2023-08-01T09:26:34;1.90;;;1.80;;
19193;SDS011;9729;52.296;13.260;2023-08-01T09:29:01;2.10;;;1.90;;
19193;SDS011;9729;52.296;13.260;2023-08-01T09:31:28;2.70;;;2.20;;
19193;SDS011;9729;52.296;13.260;2023-08-01T09:33:54;2.43;;;2.07;;
19193;SDS011;9729;52.296;13.260;2023-08-01T09:36:21;1.87;;;1.77;;
19193;SDS011;9729;52.296;13.260;2023-08-01T09:38:49;1.90;;;1.80;;
19193;SDS011;9729;52.296;13.260;2023-08-01T09:41:16;4.53;;;1.60;;
19193;SDS011;9729;52.296;13.260;2023-08-01T09:43:44;1.73;;;1.63;;
19193;SDS011;9729;52.296;13.260;2023-08-01T09:46:11;1.67;;;1.57;;
19193;SDS011;9729;52.296;13.260;2023-08-01T09:48:38;1.80;;;1.70;;
19193;SDS011;9729;52.296;13.260;2023-08-01T09:51:06;2.00;;;1.90;;
19193;SDS011;9729;52.296;13.260;2023-08-01T09:53:33;1.47;;;1.47;;
19193;SDS011;9729;52.296;13.260;2023-08-01T09:56:01;2.47;;;1.67;;
19193;SDS011;9729;52.296;13.260;2023-08-01T09:58:29;1.70;;;1.60;;
19193;SDS011;9729;52.296;13.260;2023-08-01T10:00:57;2.43;;;1.83;;
19193;SDS011;9729;52.296;13.260;2023-08-01T10:03:25;1.90;;;1.80;;
19193;SDS011;9729;52.296;13.260;2023-08-01T10:05:52;1.67;;;1.57;;
19193;SDS011;9729;52.296;13.260;2023-08-01T10:08:19;1.53;;;1.53;;
19193;SDS011;9729;52.296;13.260;2023-08-01T10:10:47;2.63;;;1.70;;
19193;SDS011;9729;52.296;13.260;2023-08-01T10:13:15;2.03;;;1.60;;
19193;SDS011;9729;52.296;13.260;2023-08-01T10:15:42;3.13;;;1.60;;
19193;SDS011;9729;52.296;13.260;2023-08-01T10:18:08;1.70;;;1.60;;
19193;SDS011;9729;52.296;13.260;2023-08-01T10:20:35;1.80;;;1.70;;
19193;SDS011;9729;52.296;13.260;2023-08-01T10:23:02;2.13;;;1.97;;
19193;SDS011;9729;52.296;13.260;2023-08-01T10:25:29;2.00;;;1.90;;
19193;SDS011;9729;52.296;13.260;2023-08-01T10:27:59;2.60;;;1.90;;
19193;SDS011;9729;52.296;13.260;2023-08-01T10:30:28;1.80;;;1.70;;
19193;SDS011;9729;52.296;13.260;2023-08-01T10:32:55;2.20;;;2.03;;
19193;SDS011;9729;52.296;13.260;2023-08-01T10:35:31;2.00;;;1.90;;
19193;SDS011;9729;52.296;13.260;2023-08-01T10:38:03;1.90;;;1.80;;
19193;SDS011;9729;52.296;13.260;2023-08-01T10:40:33;2.20;;;1.70;;
19193;SDS011;9729;52.296;13.260;2023-08-01T10:43:03;1.90;;;1.80;;
19193;SDS011;9729;52.296;13.260;2023-08-01T10:45:30;2.50;;;2.10;;
19193;SDS011;9729;52.296;13.260;2023-08-01T10:48:06;1.93;;;1.83;;
19193;SDS011;9729;52.296;13.260;2023-08-01T10:50:34;2.27;;;2.00;;
19193;SDS011;9729;52.296;13.260;2023-08-01T10:53:02;1.80;;;1.70;;
19193;SDS011;9729;52.296;13.260;2023-08-01T10:55:37;2.13;;;2.03;;
19193;SDS011;9729;52.296;13.260;2023-08-01T10:58:04;1.80;;;1.70;;
19193;SDS011;9729;52.296;13.260;2023-08-01T11:00:32;2.23;;;1.90;;
19193;SDS011;9729;52.296;13.260;2023-08-01T11:02:59;2.27;;;2.07;;
19193;SDS011;9729;52.296;13.260;2023-08-01T11:05:25;5.50;;;2.00;;
19193;SDS011;9729;52.296;13.260;2023-08-01T11:07:53;4.03;;;2.27;;
19193;SDS011;9729;52.296;13.260;2023-08-01T11:10:21;2.23;;;2.13;;
19193;SDS011;9729;52.296;13.260;2023-08-01T11:12:47;2.00;;;1.90;;
19193;SDS011;9729;52.296;13.260;2023-08-01T11:15:14;2.67;;;2.47;;
19193;SDS011;9729;52.296;13.260;2023-08-01T11:17:42;3.17;;;2.87;;
19193;SDS011;9729;52.296;13.260;2023-08-01T11:20:11;2.40;;;2.30;;
19193;SDS011;9729;52.296;13.260;2023-08-01T11:22:49;2.33;;;2.20;;
19193;SDS011;9729;52.296;13.260;2023-08-01T11:25:16;2.20;;;2.10;;
19193;SDS011;9729;52.296;13.260;2023-08-01T11:27:42;4.00;;;2.77;;
19193;SDS011;9729;52.296;13.260;2023-08-01T11:30:09;3.27;;;2.50;;
19193;SDS011;9729;52.296;13.260;2023-08-01T11:32:36;3.43;;;2.83;;
19193;SDS011;9729;52.296;13.260;2023-08-01T11:35:05;4.30;;;3.53;;
19193;SDS011;9729;52.296;13.260;2023-08-01T11:37:32;5.00;;;3.23;;
19193;SDS011;9729;52.296;13.260;2023-08-01T11:39:59;4.67;;;3.50;;
19193;SDS011;9729;52.296;13.260;2023-08-01T11:42:29;4.37;;;3.90;;
19193;SDS011;9729;52.296;13.260;2023-08-01T11:45:06;4.83;;;3.70;;
19193;SDS011;9729;52.296;13.260;2023-08-01T11:47:33;6.10;;;3.73;;
19193;SDS011;9729;52.296;13.260;2023-08-01T11:50:00;4.83;;;3.47;;
19193;SDS011;9729;52.296;13.260;2023-08-01T11:52:28;4.50;;;3.60;;
19193;SDS011;9729;52.296;13.260;2023-08-01T11:54:55;4.73;;;3.10;;
19193;SDS011;9729;52.296;13.260;2023-08-01T11:57:22;5.17;;;3.90;;
19193;SDS011;9729;52.296;13.260;2023-08-01T11:59:48;6.97;;;3.33;;
19193;SDS011;9729;52.296;13.260;2023-08-01T12:02:22;6.37;;;3.37;;
19193;SDS011;9729;52.296;13.260;2023-08-01T12:04:49;4.93;;;3.53;;
19193;SDS011;9729;52.296;13.260;2023-08-01T12:07:15;7.63;;;3.57;;
19193;SDS011;9729;52.296;13.260;2023-08-01T12:09:43;8.27;;;3.73;;
19193;SDS011;9729;52.296;13.260;2023-08-01T12:12:10;6.20;;;3.83;;
19193;SDS011;9729;52.296;13.260;2023-08-01T12:14:39;6.83;;;4.10;;
19193;SDS011;9729;52.296;13.260;2023-08-01T12:17:05;4.20;;;3.47;;
19193;SDS011;9729;52.296;13.260;2023-08-01T12:19:32;9.40;;;4.40;;
19193;SDS011;9729;52.296;13.260;2023-08-01T12:21:59;5.40;;;4.23;;
19193;SDS011;9729;52.296;13.260;2023-08-01T12:24:25;5.23;;;3.40;;
19193;SDS011;9729;52.296;13.260;2023-08-01T12:26:53;7.90;;;3.80;;
19193;SDS011;9729;52.296;13.260;2023-08-01T12:29:19;6.23;;;4.13;;
19193;SDS011;9729;52.296;13.260;2023-08-01T12:31:46;6.30;;;4.10;;
19193;SDS011;9729;52.296;13.260;2023-08-01T12:34:12;36.73;;;7.83;;
19193;SDS011;9729;52.296;13.260;2023-08-01T12:36:38;17.83;;;4.80;;
19193;SDS011;9729;52.296;13.260;2023-08-01T12:39:05;9.40;;;3.70;;
19193;SDS011;9729;52.296;13.260;2023-08-01T12:41:35;8.20;;;4.50;;
19193;SDS011;9729;52.296;13.260;2023-08-01T12:44:03;8.47;;;3.97;;
19193;SDS011;9729;52.296;13.260;2023-08-01T12:46:30;5.67;;;4.50;;
19193;SDS011;9729;52.296;13.260;2023-08-01T12:48:56;6.67;;;4.57;;
19193;SDS011;9729;52.296;13.260;2023-08-01T12:51:22;6.43;;;4.47;;
19193;SDS011;9729;52.296;13.260;2023-08-01T12:53:49;8.43;;;4.37;;
19193;SDS011;9729;52.296;13.260;2023-08-01T12:56:15;7.43;;;4.40;;
19193;SDS011;9729;52.296;13.260;2023-08-01T12:58:41;6.03;;;4.33;;
19193;SDS011;9729;52.296;13.260;2023-08-01T13:01:09;10.87;;;4.67;;
19193;SDS011;9729;52.296;13.260;2023-08-01T13:03:36;9.67;;;4.80;;
19193;SDS011;9729;52.296;13.260;2023-08-01T13:06:02;7.73;;;4.97;;
19193;SDS011;9729;52.296;13.260;2023-08-01T13:08:29;8.10;;;4.97;;
19193;SDS011;9729;52.296;13.260;2023-08-01T13:10:55;7.10;;;5.10;;
19193;SDS011;9729;52.296;13.260;2023-08-01T13:13:24;11.50;;;6.90;;
19193;SDS011;9729;52.296;13.260;2023-08-01T13:15:51;9.00;;;5.00;;
19193;SDS011;9729;52.296;13.260;2023-08-01T13:18:18;7.07;;;4.77;;
19193;SDS011;9729;52.296;13.260;2023-08-01T13:20:45;6.60;;;4.63;;
19193;SDS011;9729;52.296;13.260;2023-08-01T13:23:11;7.30;;;4.20;;
19193;SDS011;9729;52.296;13.260;2023-08-01T13:25:37;6.30;;;4.50;;
19193;SDS011;9729;52.296;13.260;2023-08-01T13:28:04;5.30;;;3.73;;
19193;SDS011;9729;52.296;13.260;2023-08-01T13:30:30;4.60;;;4.00;;
19193;SDS011;9729;52.296;13.260;2023-08-01T13:32:56;6.77;;;4.77;;
19193;SDS011;9729;52.296;13.260;2023-08-01T13:35:24;6.20;;;4.00;;
19193;SDS011;9729;52.296;13.260;2023-08-01T13:37:50;4.77;;;4.03;;
19193;SDS011;9729;52.296;13.260;2023-08-01T13:40:17;5.60;;;3.90;;
19193;SDS011;9729;52.296;13.260;2023-08-01T13:42:43;5.33;;;4.03;;
19193;SDS011;9729;52.296;13.260;2023-08-01T13:45:10;6.93;;;4.20;;
19193;SDS011;9729;52.296;13.260;2023-08-01T13:47:36;10.17;;;4.27;;
19193;SDS011;9729;52.296;13.260;2023-08-01T13:50:03;5.10;;;3.77;;
19193;SDS011;9729;52.296;13.260;2023-08-01T13:52:31;10.27;;;4.60;;
19193;SDS011;9729;52.296;13.260;2023-08-01T13:54:57;9.40;;;4.57;;
19193;SDS011;9729;52.296;13.260;2023-08-01T13:57:25;5.90;;;4.30;;
19193;SDS011;9729;52.296;13.260;2023-08-01T13:59:52;5.63;;;3.80;;
19193;SDS011;9729;52.296;13.260;2023-08-01T14:02:18;6.10;;;3.97;;
19193;SDS011;9729;52.296;13.260;2023-08-01T14:04:45;9.27;;;4.43;;
19193;SDS011;9729;52.296;13.260;2023-08-01T14:07:11;7.10;;;5.30;;
19193;SDS011;9729;52.296;13.260;2023-08-01T14:09:39;4.70;;;3.93;;
19193;SDS011;9729;52.296;13.260;2023-08-01T14:12:06;6.63;;;4.60;;
19193;SDS011;9729;52.296;13.260;2023-08-01T14:14:33;6.72;;;3.67;;
19193;SDS011;9729;52.296;13.260;2023-08-01T14:16:59;6.13;;;3.27;;
19193;SDS011;9729;52.296;13.260;2023-08-01T14:19:26;5.65;;;3.45;;
19193;SDS011;9729;52.296;13.260;2023-08-01T14:21:54;4.37;;;3.40;;
19193;SDS011;9729;52.296;13.260;2023-08-01T14:24:21;5.60;;;3.30;;
19193;SDS011;9729;52.296;13.260;2023-08-01T14:26:49;3.43;;;3.13;;
19193;SDS011;9729;52.296;13.260;2023-08-01T14:29:16;6.83;;;4.20;;
19193;SDS011;9729;52.296;13.260;2023-08-01T14:31:43;5.90;;;4.30;;
19193;SDS011;9729;52.296;13.260;2023-08-01T14:34:10;7.00;;;4.13;;
19193;SDS011;9729;52.296;13.260;2023-08-01T14:36:36;5.97;;;4.70;;
19193;SDS011;9729;52.296;13.260;2023-08-01T14:39:03;6.00;;;3.77;;
19193;SDS011;9729;52.296;13.260;2023-08-01T14:41:30;5.27;;;3.70;;
19193;SDS011;9729;52.296;13.260;2023-08-01T14:43:58;6.30;;;3.67;;